sensor_id;sensor_type;location;lat;lon;timestamp;pressure;altitude;pressure_sealevel;temperature;humidity
31088;BME280;17745;55.914;37.554;2023-03-01T04:11:49;98311.06;;;-5.05;50.88
31088;BME280;17745;55.914;37.554;2023-03-01T04:14:57;98301.37;;;-5.03;50.65
31088;BME280;17745;55.914;37.554;2023-03-01T06:53:53;98402.81;;;-5.26;54.24
31088;BME280;17745;55.914;37.554;2023-03-01T07:00:37;98402.38;;;-5.69;55.59
31088;BME280;17745;55.914;37.554;2023-03-01T07:03:31;98423.44;;;-4.94;54.05
31088;BME280;17745;55.914;37.554;2023-03-01T07:06:07;98398.78;;;-4.74;53.61
31088;BME280;17745;55.914;37.554;2023-03-01T07:12:54;98406.88;;;-4.53;53.38
31088;BME280;17745;55.914;37.554;2023-03-01T07:15:52;98432.09;;;-3.87;52.00
31088;BME280;17745;55.914;37.554;2023-03-01T07:18:48;98439.34;;;-3.82;51.95
31088;BME280;17745;55.914;37.554;2023-03-01T07:21:53;98449.59;;;-4.27;53.30
31088;BME280;17745;55.914;37.554;2023-03-01T07:25:05;98432.69;;;-4.53;53.82
31088;BME280;17745;55.914;37.554;2023-03-01T07:48:58;98478.47;;;-3.10;51.86
31088;BME280;17745;55.914;37.554;2023-03-01T07:51:35;98463.22;;;-2.40;50.70
31088;BME280;17745;55.914;37.554;2023-03-01T07:54:21;98456.56;;;-1.99;49.68
31088;BME280;17745;55.914;37.554;2023-03-01T07:57:00;98444.00;;;-2.52;50.51
31088;BME280;17745;55.914;37.554;2023-03-01T07:59:53;98449.56;;;-1.98;49.57
31088;BME280;17745;55.914;37.554;2023-03-01T08:02:38;98455.81;;;-2.21;49.88
31088;BME280;17745;55.914;37.554;2023-03-01T08:05:20;98443.91;;;-2.37;50.65
31088;BME280;17745;55.914;37.554;2023-03-01T08:07:54;98437.06;;;-2.67;50.75
31088;BME280;17745;55.914;37.554;2023-03-01T08:11:03;98457.81;;;-2.45;50.62
31088;BME280;17745;55.914;37.554;2023-03-01T08:13:50;98468.78;;;-2.43;50.60
31088;BME280;17745;55.914;37.554;2023-03-01T08:16:35;98457.94;;;-2.75;51.45
31088;BME280;17745;55.914;37.554;2023-03-01T08:19:11;98462.19;;;-3.04;52.38
31088;BME280;17745;55.914;37.554;2023-03-01T08:22:23;98471.09;;;-3.59;53.70
31088;BME280;17745;55.914;37.554;2023-03-01T08:24:55;98473.12;;;-2.00;50.46
31088;BME280;17745;55.914;37.554;2023-03-01T08:27:27;98480.44;;;-1.82;49.94
31088;BME280;17745;55.914;37.554;2023-03-01T08:30:33;98479.81;;;-3.14;52.00
31088;BME280;17745;55.914;37.554;2023-03-01T08:36:37;98499.72;;;-2.78;51.71
31088;BME280;17745;55.914;37.554;2023-03-01T08:39:34;98492.59;;;-2.11;49.95
31088;BME280;17745;55.914;37.554;2023-03-01T08:42:05;98493.28;;;-1.67;49.14
31088;BME280;17745;55.914;37.554;2023-03-01T08:45:07;98498.28;;;-3.03;51.50
31088;BME280;17745;55.914;37.554;2023-03-01T08:48:00;98495.00;;;-3.56;52.91
31088;BME280;17745;55.914;37.554;2023-03-01T08:50:31;98499.87;;;-3.17;52.24
31088;BME280;17745;55.914;37.554;2023-03-01T08:53:10;98489.41;;;-2.13;50.17
31088;BME280;17745;55.914;37.554;2023-03-01T08:56:10;98491.59;;;-1.53;49.08
31088;BME280;17745;55.914;37.554;2023-03-01T08:58:59;98493.34;;;-1.25;48.50
31088;BME280;17745;55.914;37.554;2023-03-01T09:02:03;98501.09;;;-1.32;48.60
31088;BME280;17745;55.914;37.554;2023-03-01T09:05:05;98490.19;;;-1.55;48.46
31088;BME280;17745;55.914;37.554;2023-03-01T09:07:45;98492.84;;;-2.06;49.64
31088;BME280;17745;55.914;37.554;2023-03-01T09:10:19;98490.28;;;-1.35;48.89
31088;BME280;17745;55.914;37.554;2023-03-01T09:12:52;98504.41;;;-1.80;49.36
31088;BME280;17745;55.914;37.554;2023-03-01T09:15:28;98478.78;;;-2.62;51.16
31088;BME280;17745;55.914;37.554;2023-03-01T09:18:48;98502.22;;;-3.22;52.04
31088;BME280;17745;55.914;37.554;2023-03-01T09:33:08;98484.37;;;-2.14;50.41
31088;BME280;17745;55.914;37.554;2023-03-01T09:36:15;98483.69;;;-1.38;48.68
31088;BME280;17745;55.914;37.554;2023-03-01T09:39:25;98488.22;;;-1.05;47.96
31088;BME280;17745;55.914;37.554;2023-03-01T09:42:59;98485.81;;;-1.48;48.62
31088;BME280;17745;55.914;37.554;2023-03-01T09:45:55;98487.66;;;-1.77;48.98
31088;BME280;17745;55.914;37.554;2023-03-01T09:56:20;98491.97;;;-1.91;50.16
31088;BME280;17745;55.914;37.554;2023-03-01T09:59:44;98509.34;;;-0.52;47.57
31088;BME280;17745;55.914;37.554;2023-03-01T10:03:03;98492.87;;;-0.87;47.17
31088;BME280;17745;55.914;37.554;2023-03-01T10:06:05;98518.53;;;-1.19;48.00
31088;BME280;17745;55.914;37.554;2023-03-01T10:08:50;98504.59;;;-1.81;48.78
31088;BME280;17745;55.914;37.554;2023-03-01T10:11:38;98502.78;;;-0.48;46.67
31088;BME280;17745;55.914;37.554;2023-03-01T10:14:30;98512.03;;;0.08;45.99
31088;BME280;17745;55.914;37.554;2023-03-01T10:17:12;98497.09;;;0.69;45.29
31088;BME280;17745;55.914;37.554;2023-03-01T10:19:43;98510.84;;;0.11;45.42
31088;BME280;17745;55.914;37.554;2023-03-01T10:22:28;98514.63;;;-0.12;45.50
31088;BME280;17745;55.914;37.554;2023-03-01T10:25:03;98507.69;;;-0.80;46.53
31088;BME280;17745;55.914;37.554;2023-03-01T10:27:51;98509.22;;;-0.10;45.83
31088;BME280;17745;55.914;37.554;2023-03-01T10:30:34;98494.94;;;-0.68;46.01
31088;BME280;17745;55.914;37.554;2023-03-01T10:33:25;98494.59;;;-0.18;45.47
31088;BME280;17745;55.914;37.554;2023-03-01T10:36:02;98501.56;;;-0.59;45.99
31088;BME280;17745;55.914;37.554;2023-03-01T10:38:57;98497.13;;;-0.72;46.19
31088;BME280;17745;55.914;37.554;2023-03-01T10:41:27;98489.41;;;-0.18;45.09
31088;BME280;17745;55.914;37.554;2023-03-01T10:44:04;98497.00;;;0.17;44.55
31088;BME280;17745;55.914;37.554;2023-03-01T10:46:41;98504.63;;;0.12;44.52
31088;BME280;17745;55.914;37.554;2023-03-01T10:49:15;98511.62;;;-0.98;46.71
31088;BME280;17745;55.914;37.554;2023-03-01T10:52:21;98505.75;;;-1.13;46.75
31088;BME280;17745;55.914;37.554;2023-03-01T10:55:19;98496.78;;;-0.49;45.95
31088;BME280;17745;55.914;37.554;2023-03-01T10:58:09;98497.81;;;-0.30;45.22
31088;BME280;17745;55.914;37.554;2023-03-01T11:01:29;98475.94;;;-0.76;45.36
31088;BME280;17745;55.914;37.554;2023-03-01T11:04:12;98500.34;;;-0.56;45.66
31088;BME280;17745;55.914;37.554;2023-03-01T11:07:00;98501.16;;;-1.18;46.50
31088;BME280;17745;55.914;37.554;2023-03-01T11:09:41;98522.44;;;-1.71;47.58
31088;BME280;17745;55.914;37.554;2023-03-01T11:12:18;98511.66;;;-1.97;47.94
31088;BME280;17745;55.914;37.554;2023-03-01T11:18:24;98492.19;;;-1.09;46.44
31088;BME280;17745;55.914;37.554;2023-03-01T11:21:02;98509.44;;;0.02;44.37
31088;BME280;17745;55.914;37.554;2023-03-01T11:23:48;98499.41;;;-1.04;45.12
31088;BME280;17745;55.914;37.554;2023-03-01T11:26:21;98508.97;;;-0.56;45.07
31088;BME280;17745;55.914;37.554;2023-03-01T11:29:07;98513.72;;;0.82;42.74
31088;BME280;17745;55.914;37.554;2023-03-01T11:31:49;98491.63;;;0.05;43.14
31088;BME280;17745;55.914;37.554;2023-03-01T11:45:43;98506.22;;;-0.01;43.28
31088;BME280;17745;55.914;37.554;2023-03-01T11:49:06;98509.56;;;-0.61;44.56
31088;BME280;17745;55.914;37.554;2023-03-01T11:52:12;98509.41;;;-0.25;43.61
31088;BME280;17745;55.914;37.554;2023-03-01T11:55:43;98500.88;;;0.87;42.61
31088;BME280;17745;55.914;37.554;2023-03-01T12:09:54;98519.16;;;-0.61;42.71
31088;BME280;17745;55.914;37.554;2023-03-01T12:13:40;98531.94;;;-0.66;43.13
31088;BME280;17745;55.914;37.554;2023-03-01T12:16:35;98526.56;;;-0.51;43.00
31088;BME280;17745;55.914;37.554;2023-03-01T12:20:02;98514.19;;;-0.49;42.81
31088;BME280;17745;55.914;37.554;2023-03-01T13:17:53;98502.13;;;-1.26;45.66
31088;BME280;17745;55.914;37.554;2023-03-01T13:20:45;98530.87;;;-1.63;46.90
31088;BME280;17745;55.914;37.554;2023-03-01T13:23:39;98530.94;;;-2.06;48.12
31088;BME280;17745;55.914;37.554;2023-03-01T13:26:30;98528.41;;;-1.42;46.23
31088;BME280;17745;55.914;37.554;2023-03-01T13:29:27;98520.09;;;-0.82;45.07
31088;BME280;17745;55.914;37.554;2023-03-01T13:32:32;98526.88;;;-0.88;45.23
31088;BME280;17745;55.914;37.554;2023-03-01T13:35:45;98507.19;;;-1.46;45.93
31088;BME280;17745;55.914;37.554;2023-03-01T13:38:47;98518.31;;;-1.24;46.02
31088;BME280;17745;55.914;37.554;2023-03-01T13:42:00;98505.13;;;-1.29;45.30
31088;BME280;17745;55.914;37.554;2023-03-01T13:45:16;98517.47;;;-1.95;46.49
31088;BME280;17745;55.914;37.554;2023-03-01T13:48:26;98517.69;;;-1.90;46.83
31088;BME280;17745;55.914;37.554;2023-03-01T13:51:55;98512.63;;;-1.76;45.84
31088;BME280;17745;55.914;37.554;2023-03-01T13:55:14;98488.81;;;-1.03;44.36
31088;BME280;17745;55.914;37.554;2023-03-01T13:58:53;98493.28;;;-0.90;44.25
31088;BME280;17745;55.914;37.554;2023-03-01T14:40:19;98461.97;;;-0.21;43.66
31088;BME280;17745;55.914;37.554;2023-03-01T14:47:05;98459.41;;;-0.27;43.93
31088;BME280;17745;55.914;37.554;2023-03-01T14:49:50;98459.81;;;-0.31;44.07
31088;BME280;17745;55.914;37.554;2023-03-01T14:52:53;98465.00;;;-0.37;44.35
31088;BME280;17745;55.914;37.554;2023-03-01T14:55:54;98463.78;;;-0.35;44.33
31088;BME280;17745;55.914;37.554;2023-03-01T15:03:17;98451.56;;;-0.41;44.57
31088;BME280;17745;55.914;37.554;2023-03-01T15:06:47;98445.97;;;-0.38;44.70
31088;BME280;17745;55.914;37.554;2023-03-01T15:09:52;98454.75;;;-0.46;44.82
31088;BME280;17745;55.914;37.554;2023-03-01T15:13:10;98461.78;;;-0.46;44.87
31088;BME280;17745;55.914;37.554;2023-03-01T15:16:11;98459.78;;;-0.44;44.94
31088;BME280;17745;55.914;37.554;2023-03-01T15:19:06;98453.75;;;-0.45;45.04
31088;BME280;17745;55.914;37.554;2023-03-01T15:22:26;98472.78;;;-0.51;45.17
31088;BME280;17745;55.914;37.554;2023-03-01T15:25:56;98446.75;;;-0.51;45.23
31088;BME280;17745;55.914;37.554;2023-03-01T15:42:36;98448.13;;;-0.68;45.95
31088;BME280;17745;55.914;37.554;2023-03-01T15:45:57;98444.56;;;-0.61;45.75
31088;BME280;17745;55.914;37.554;2023-03-01T15:48:55;98435.56;;;-0.65;45.78
31088;BME280;17745;55.914;37.554;2023-03-01T15:54:49;98443.34;;;-0.72;45.83
31088;BME280;17745;55.914;37.554;2023-03-01T16:05:21;98447.91;;;-0.80;45.81
31088;BME280;17745;55.914;37.554;2023-03-01T16:08:24;98440.69;;;-0.98;45.93
31088;BME280;17745;55.914;37.554;2023-03-01T16:11:45;98425.28;;;-1.55;47.00
31088;BME280;17745;55.914;37.554;2023-03-01T16:18:37;98438.84;;;-1.60;47.12
31088;BME280;17745;55.914;37.554;2023-03-01T16:21:34;98447.03;;;-1.08;45.95
31088;BME280;17745;55.914;37.554;2023-03-01T16:24:15;98450.09;;;-0.97;45.85
31088;BME280;17745;55.914;37.554;2023-03-01T16:26:58;98446.06;;;-1.00;45.78
31088;BME280;17745;55.914;37.554;2023-03-01T16:29:45;98446.72;;;-0.78;45.44
31088;BME280;17745;55.914;37.554;2023-03-01T16:32:21;98448.72;;;-0.73;45.44
31088;BME280;17745;55.914;37.554;2023-03-01T16:35:16;98432.75;;;-0.77;45.54
31088;BME280;17745;55.914;37.554;2023-03-01T16:38:05;98445.13;;;-0.65;45.51
31088;BME280;17745;55.914;37.554;2023-03-01T16:40:38;98447.16;;;-0.61;45.47
31088;BME280;17745;55.914;37.554;2023-03-01T16:43:18;98437.56;;;-0.67;45.51
31088;BME280;17745;55.914;37.554;2023-03-01T16:46:26;98443.53;;;-0.73;45.66
31088;BME280;17745;55.914;37.554;2023-03-01T16:49:16;98433.94;;;-0.73;45.62
31088;BME280;17745;55.914;37.554;2023-03-01T16:52:01;98436.94;;;-0.76;45.64
31088;BME280;17745;55.914;37.554;2023-03-01T16:54:39;98431.31;;;-0.79;45.73
31088;BME280;17745;55.914;37.554;2023-03-01T16:57:13;98436.13;;;-0.76;45.84
31088;BME280;17745;55.914;37.554;2023-03-01T17:00:16;98428.34;;;-0.69;45.84
31088;BME280;17745;55.914;37.554;2023-03-01T17:03:22;98426.53;;;-0.62;45.87
31088;BME280;17745;55.914;37.554;2023-03-01T17:06:03;98432.94;;;-0.72;46.16
31088;BME280;17745;55.914;37.554;2023-03-01T17:08:57;98424.94;;;-0.63;46.00
31088;BME280;17745;55.914;37.554;2023-03-01T17:12:01;98427.75;;;-0.65;46.08
31088;BME280;17745;55.914;37.554;2023-03-01T17:14:42;98431.94;;;-0.64;46.22
31088;BME280;17745;55.914;37.554;2023-03-01T17:21:51;98429.16;;;-0.69;46.47
31088;BME280;17745;55.914;37.554;2023-03-01T17:29:00;98422.13;;;-0.75;46.66
31088;BME280;17745;55.914;37.554;2023-03-01T17:32:11;98422.53;;;-0.78;46.74
31088;BME280;17745;55.914;37.554;2023-03-01T17:38:28;98412.72;;;-0.83;46.86
31088;BME280;17745;55.914;37.554;2023-03-01T17:41:28;98406.72;;;-0.90;46.98
31088;BME280;17745;55.914;37.554;2023-03-01T17:44:09;98401.91;;;-1.00;47.13
31088;BME280;17745;55.914;37.554;2023-03-01T17:47:01;98399.09;;;-1.05;47.26
31088;BME280;17745;55.914;37.554;2023-03-01T17:49:44;98395.28;;;-1.09;47.37
31088;BME280;17745;55.914;37.554;2023-03-01T17:53:09;98404.88;;;-1.10;47.45
31088;BME280;17745;55.914;37.554;2023-03-01T17:56:20;98399.06;;;-1.12;47.45
31088;BME280;17745;55.914;37.554;2023-03-01T17:59:36;98395.66;;;-1.12;47.54
31088;BME280;17745;55.914;37.554;2023-03-01T18:02:44;98389.28;;;-1.10;47.62
31088;BME280;17745;55.914;37.554;2023-03-01T18:05:42;98388.50;;;-1.10;47.72
31088;BME280;17745;55.914;37.554;2023-03-01T18:08:20;98401.50;;;-1.10;47.77
31088;BME280;17745;55.914;37.554;2023-03-01T18:10:58;98395.66;;;-1.12;47.80
31088;BME280;17745;55.914;37.554;2023-03-01T18:13:33;98386.47;;;-1.15;47.93
31088;BME280;17745;55.914;37.554;2023-03-01T18:16:20;98384.47;;;-1.13;48.01
31088;BME280;17745;55.914;37.554;2023-03-01T18:18:56;98389.50;;;-1.11;48.08
31088;BME280;17745;55.914;37.554;2023-03-01T18:21:52;98385.66;;;-1.16;48.23
31088;BME280;17745;55.914;37.554;2023-03-01T18:24:53;98389.50;;;-1.11;48.22
31088;BME280;17745;55.914;37.554;2023-03-01T18:27:37;98389.69;;;-1.13;48.23
31088;BME280;17745;55.914;37.554;2023-03-01T18:33:11;98387.28;;;-1.08;48.37
31088;BME280;17745;55.914;37.554;2023-03-01T18:35:43;98383.69;;;-1.07;48.48
31088;BME280;17745;55.914;37.554;2023-03-01T18:38:37;98391.31;;;-1.05;48.51
31088;BME280;17745;55.914;37.554;2023-03-01T18:41:08;98393.69;;;-1.04;48.49
31088;BME280;17745;55.914;37.554;2023-03-01T18:43:49;98387.31;;;-1.01;48.57
31088;BME280;17745;55.914;37.554;2023-03-01T18:46:48;98388.31;;;-1.02;48.76
31088;BME280;17745;55.914;37.554;2023-03-01T18:53:28;98388.09;;;-0.94;48.80
31088;BME280;17745;55.914;37.554;2023-03-01T18:56:36;98382.53;;;-0.91;48.88
31088;BME280;17745;55.914;37.554;2023-03-01T18:59:52;98372.94;;;-0.90;48.98
31088;BME280;17745;55.914;37.554;2023-03-01T19:02:47;98367.34;;;-0.87;48.97
31088;BME280;17745;55.914;37.554;2023-03-01T19:05:29;98372.94;;;-0.83;48.94
31088;BME280;17745;55.914;37.554;2023-03-01T19:08:51;98374.53;;;-0.82;49.03
31088;BME280;17745;55.914;37.554;2023-03-01T19:12:14;98375.34;;;-0.75;49.02
31088;BME280;17745;55.914;37.554;2023-03-01T19:14:53;98368.38;;;-0.68;48.92
31088;BME280;17745;55.914;37.554;2023-03-01T19:17:28;98371.56;;;-0.73;49.00
31088;BME280;17745;55.914;37.554;2023-03-01T19:20:20;98362.34;;;-0.75;49.08
31088;BME280;17745;55.914;37.554;2023-03-01T19:23:11;98368.16;;;-0.80;49.26
31088;BME280;17745;55.914;37.554;2023-03-01T19:26:29;98356.53;;;-0.84;49.29
31088;BME280;17745;55.914;37.554;2023-03-01T19:29:12;98348.13;;;-0.86;49.40
31088;BME280;17745;55.914;37.554;2023-03-01T19:31:51;98351.56;;;-0.85;49.33
31088;BME280;17745;55.914;37.554;2023-03-01T19:34:22;98353.16;;;-0.84;49.38
31088;BME280;17745;55.914;37.554;2023-03-01T19:36:54;98340.56;;;-0.81;49.33
31088;BME280;17745;55.914;37.554;2023-03-01T19:39:40;98339.75;;;-0.81;49.34
31088;BME280;17745;55.914;37.554;2023-03-01T19:53:34;98340.16;;;-0.84;49.59
31088;BME280;17745;55.914;37.554;2023-03-01T19:56:24;98343.75;;;-0.85;49.56
31088;BME280;17745;55.914;37.554;2023-03-01T19:59:18;98340.75;;;-0.82;49.56
31088;BME280;17745;55.914;37.554;2023-03-01T20:02:07;98338.16;;;-0.82;49.64
31088;BME280;17745;55.914;37.554;2023-03-01T20:10:10;98342.16;;;-0.66;49.56
31088;BME280;17745;55.914;37.554;2023-03-01T20:13:48;98352.38;;;-0.65;49.63
31088;BME280;17745;55.914;37.554;2023-03-01T20:21:57;98337.56;;;-0.64;49.83
31088;BME280;17745;55.914;37.554;2023-03-01T20:24:17;98328.38;;;-0.80;50.21
31088;BME280;17745;55.914;37.554;2023-03-01T20:27:33;98330.78;;;-0.79;50.34
31088;BME280;17745;55.914;37.554;2023-03-01T20:30:54;98328.34;;;-0.87;50.83
31088;BME280;17745;55.914;37.554;2023-03-01T20:37:30;98318.16;;;-0.89;50.90
31088;BME280;17745;55.914;37.554;2023-03-01T20:40:21;98320.38;;;-0.85;50.83
31088;BME280;17745;55.914;37.554;2023-03-01T20:54:42;98301.78;;;-1.09;51.66
31088;BME280;17745;55.914;37.554;2023-03-01T20:57:45;98307.13;;;-1.18;51.80
31088;BME280;17745;55.914;37.554;2023-03-01T21:00:48;98306.94;;;-1.16;51.87
31088;BME280;17745;55.914;37.554;2023-03-01T21:03:57;98297.94;;;-1.13;51.79
31088;BME280;17745;55.914;37.554;2023-03-01T21:07:02;98308.97;;;-1.11;51.86
31088;BME280;17745;55.914;37.554;2023-03-01T21:42:42;98302.94;;;-1.39;53.19
31088;BME280;17745;55.914;37.554;2023-03-01T21:45:24;98314.31;;;-1.40;53.55
31088;BME280;17745;55.914;37.554;2023-03-01T21:48:03;98310.91;;;-1.40;53.50
31088;BME280;17745;55.914;37.554;2023-03-01T21:50:40;98306.53;;;-1.40;53.70
31088;BME280;17745;55.914;37.554;2023-03-01T21:53:12;98312.91;;;-1.36;53.60
31088;BME280;17745;55.914;37.554;2023-03-01T21:55:59;98312.50;;;-1.33;53.55
31088;BME280;17745;55.914;37.554;2023-03-01T21:58:35;98312.12;;;-1.30;53.61
31088;BME280;17745;55.914;37.554;2023-03-01T22:01:17;98322.91;;;-1.26;53.67
31088;BME280;17745;55.914;37.554;2023-03-01T22:03:50;98318.72;;;-1.27;53.78
31088;BME280;17745;55.914;37.554;2023-03-01T22:06:25;98312.12;;;-1.30;54.07
31088;BME280;17745;55.914;37.554;2023-03-01T22:09:06;98314.94;;;-1.31;54.17
31088;BME280;17745;55.914;37.554;2023-03-01T22:11:43;98308.91;;;-1.32;54.23
31088;BME280;17745;55.914;37.554;2023-03-01T22:21:34;98303.31;;;-1.28;54.34
31088;BME280;17745;55.914;37.554;2023-03-01T22:24:03;98310.91;;;-1.34;54.75
31088;BME280;17745;55.914;37.554;2023-03-01T22:26:34;98323.09;;;-1.41;55.06
31088;BME280;17745;55.914;37.554;2023-03-01T22:29:16;98323.09;;;-1.27;54.82
31088;BME280;17745;55.914;37.554;2023-03-01T22:31:50;98335.09;;;-1.26;54.98
31088;BME280;17745;55.914;37.554;2023-03-01T22:34:25;98331.22;;;-1.58;56.50
31088;BME280;17745;55.914;37.554;2023-03-01T22:36:54;98331.91;;;-1.28;55.25
31088;BME280;17745;55.914;37.554;2023-03-01T22:39:29;98335.69;;;-1.24;55.39
31088;BME280;17745;55.914;37.554;2023-03-01T22:41:57;98327.53;;;-1.21;55.19
31088;BME280;17745;55.914;37.554;2023-03-01T22:44:29;98340.72;;;-1.16;55.13
31088;BME280;17745;55.914;37.554;2023-03-01T22:47:05;98331.06;;;-1.42;56.23
31088;BME280;17745;55.914;37.554;2023-03-01T22:49:39;98336.88;;;-1.34;55.94
31088;BME280;17745;55.914;37.554;2023-03-01T22:52:08;98340.84;;;-1.45;56.67
31088;BME280;17745;55.914;37.554;2023-03-01T22:59:03;98337.59;;;-1.60;57.50
31088;BME280;17745;55.914;37.554;2023-03-01T23:02:09;98333.06;;;-1.45;57.12
31088;BME280;17745;55.914;37.554;2023-03-01T23:04:45;98330.09;;;-1.90;58.95
31088;BME280;17745;55.914;37.554;2023-03-01T23:07:17;98343.81;;;-1.54;57.70
31088;BME280;17745;55.914;37.554;2023-03-01T23:09:47;98361.34;;;-1.63;58.21
31088;BME280;17745;55.914;37.554;2023-03-01T23:12:14;98348.78;;;-1.60;57.99
31088;BME280;17745;55.914;37.554;2023-03-01T23:14:42;98335.03;;;-2.02;59.73
31088;BME280;17745;55.914;37.554;2023-03-01T23:17:12;98338.34;;;-1.73;58.89
31088;BME280;17745;55.914;37.554;2023-03-01T23:19:50;98333.97;;;-1.66;58.76
31088;BME280;17745;55.914;37.554;2023-03-01T23:22:24;98339.16;;;-1.66;58.28
31088;BME280;17745;55.914;37.554;2023-03-01T23:24:52;98336.78;;;-1.67;58.90
31088;BME280;17745;55.914;37.554;2023-03-01T23:27:23;98340.44;;;-1.97;60.03
31088;BME280;17745;55.914;37.554;2023-03-01T23:29:55;98359.16;;;-2.02;60.40
31088;BME280;17745;55.914;37.554;2023-03-01T23:32:24;98362.53;;;-1.73;59.44
31088;BME280;17745;55.914;37.554;2023-03-01T23:34:52;98347.03;;;-1.46;58.46
31088;BME280;17745;55.914;37.554;2023-03-01T23:37:20;98343.91;;;-1.83;59.42
31088;BME280;17745;55.914;37.554;2023-03-01T23:39:48;98346.81;;;-1.58;58.67
31088;BME280;17745;55.914;37.554;2023-03-01T23:42:19;98348.63;;;-2.00;59.88
31088;BME280;17745;55.914;37.554;2023-03-01T23:44:55;98349.56;;;-1.73;59.00
31088;BME280;17745;55.914;37.554;2023-03-01T23:47:31;98346.69;;;-1.84;59.65
31088;BME280;17745;55.914;37.554;2023-03-01T23:50:02;98354.94;;;-1.67;59.23
31088;BME280;17745;55.914;37.554;2023-03-01T23:53:02;98357.78;;;-1.97;60.38
31088;BME280;17745;55.914;37.554;2023-03-01T23:55:32;98352.94;;;-1.72;59.76
31088;BME280;17745;55.914;37.554;2023-03-01T23:58:01;98357.22;;;-1.51;59.20
